sensor_id;sensor_type;location;lat;lon;timestamp;P1;durP1;ratioP1;P2;durP2;ratioP2
42912;SDS011;50720;54.324;18.558;2023-04-24T00:01:30;38.72;;;24.95;;
42912;SDS011;50720;54.324;18.558;2023-04-24T00:06:32;36.63;;;23.85;;
42912;SDS011;50720;54.324;18.558;2023-04-24T00:09:02;37.35;;;24.48;;
42912;SDS011;50720;54.324;18.558;2023-04-24T00:11:33;39.95;;;25.67;;
42912;SDS011;50720;54.324;18.558;2023-04-24T00:14:03;35.75;;;24.80;;
42912;SDS011;50720;54.324;18.558;2023-04-24T00:16:32;38.05;;;25.52;;
42912;SDS011;50720;54.324;18.558;2023-04-24T00:19:03;36.05;;;24.27;;
42912;SDS011;50720;54.324;18.558;2023-04-24T00:21:33;31.65;;;22.33;;
42912;SDS011;50720;54.324;18.558;2023-04-24T00:24:03;29.60;;;21.90;;
42912;SDS011;50720;54.324;18.558;2023-04-24T00:26:34;30.70;;;21.63;;
42912;SDS011;50720;54.324;18.558;2023-04-24T00:29:04;33.78;;;21.50;;
42912;SDS011;50720;54.324;18.558;2023-04-24T00:31:33;30.27;;;22.58;;
42912;SDS011;50720;54.324;18.558;2023-04-24T00:34:03;29.73;;;21.08;;
42912;SDS011;50720;54.324;18.558;2023-04-24T00:36:33;28.88;;;21.20;;
42912;SDS011;50720;54.324;18.558;2023-04-24T00:39:03;27.43;;;21.63;;
42912;SDS011;50720;54.324;18.558;2023-04-24T00:41:32;27.80;;;21.67;;
42912;SDS011;50720;54.324;18.558;2023-04-24T00:44:04;31.35;;;21.92;;
42912;SDS011;50720;54.324;18.558;2023-04-24T00:46:34;29.08;;;21.90;;
42912;SDS011;50720;54.324;18.558;2023-04-24T00:51:34;28.42;;;20.00;;
42912;SDS011;50720;54.324;18.558;2023-04-24T00:54:04;28.80;;;20.85;;
42912;SDS011;50720;54.324;18.558;2023-04-24T00:56:35;27.25;;;21.30;;
42912;SDS011;50720;54.324;18.558;2023-04-24T00:59:04;25.77;;;19.80;;
42912;SDS011;50720;54.324;18.558;2023-04-24T01:01:34;29.33;;;20.73;;
42912;SDS011;50720;54.324;18.558;2023-04-24T01:04:05;37.22;;;22.05;;
42912;SDS011;50720;54.324;18.558;2023-04-24T01:06:35;28.00;;;20.40;;
42912;SDS011;50720;54.324;18.558;2023-04-24T01:09:08;28.90;;;21.95;;
42912;SDS011;50720;54.324;18.558;2023-04-24T01:11:40;35.35;;;23.42;;
42912;SDS011;50720;54.324;18.558;2023-04-24T01:14:11;29.23;;;21.98;;
42912;SDS011;50720;54.324;18.558;2023-04-24T01:16:41;32.33;;;23.63;;
42912;SDS011;50720;54.324;18.558;2023-04-24T01:19:11;32.97;;;23.60;;
42912;SDS011;50720;54.324;18.558;2023-04-24T01:21:41;34.90;;;25.13;;
42912;SDS011;50720;54.324;18.558;2023-04-24T01:24:14;31.77;;;23.65;;
42912;SDS011;50720;54.324;18.558;2023-04-24T01:26:46;34.70;;;23.80;;
42912;SDS011;50720;54.324;18.558;2023-04-24T01:29:16;29.30;;;22.48;;
42912;SDS011;50720;54.324;18.558;2023-04-24T01:31:45;30.90;;;22.48;;
42912;SDS011;50720;54.324;18.558;2023-04-24T01:34:15;37.15;;;25.00;;
42912;SDS011;50720;54.324;18.558;2023-04-24T01:36:45;37.37;;;23.90;;
42912;SDS011;50720;54.324;18.558;2023-04-24T01:39:17;35.67;;;25.23;;
42912;SDS011;50720;54.324;18.558;2023-04-24T01:41:47;36.92;;;24.98;;
42912;SDS011;50720;54.324;18.558;2023-04-24T01:44:17;36.55;;;23.65;;
42912;SDS011;50720;54.324;18.558;2023-04-24T01:46:47;37.40;;;25.02;;
42912;SDS011;50720;54.324;18.558;2023-04-24T01:49:17;39.13;;;24.60;;
42912;SDS011;50720;54.324;18.558;2023-04-24T01:51:46;35.45;;;24.23;;
42912;SDS011;50720;54.324;18.558;2023-04-24T01:54:18;38.75;;;25.52;;
42912;SDS011;50720;54.324;18.558;2023-04-24T01:56:47;37.15;;;25.10;;
42912;SDS011;50720;54.324;18.558;2023-04-24T01:59:18;41.88;;;26.17;;
42912;SDS011;50720;54.324;18.558;2023-04-24T02:04:18;40.70;;;25.67;;
42912;SDS011;50720;54.324;18.558;2023-04-24T02:06:48;44.20;;;26.45;;
42912;SDS011;50720;54.324;18.558;2023-04-24T02:09:20;41.47;;;25.38;;
42912;SDS011;50720;54.324;18.558;2023-04-24T02:11:49;46.25;;;25.90;;
42912;SDS011;50720;54.324;18.558;2023-04-24T02:14:19;42.47;;;25.08;;
42912;SDS011;50720;54.324;18.558;2023-04-24T02:16:48;43.80;;;25.20;;
42912;SDS011;50720;54.324;18.558;2023-04-24T02:19:18;38.38;;;25.50;;
42912;SDS011;50720;54.324;18.558;2023-04-24T02:21:48;46.40;;;26.95;;
42912;SDS011;50720;54.324;18.558;2023-04-24T02:24:18;46.75;;;26.35;;
42912;SDS011;50720;54.324;18.558;2023-04-24T02:26:49;45.65;;;27.52;;
42912;SDS011;50720;54.324;18.558;2023-04-24T02:29:19;47.08;;;27.35;;
42912;SDS011;50720;54.324;18.558;2023-04-24T02:31:49;44.60;;;27.03;;
42912;SDS011;50720;54.324;18.558;2023-04-24T02:34:19;47.83;;;28.83;;
42912;SDS011;50720;54.324;18.558;2023-04-24T02:36:50;47.92;;;28.48;;
42912;SDS011;50720;54.324;18.558;2023-04-24T02:39:22;42.90;;;26.02;;
42912;SDS011;50720;54.324;18.558;2023-04-24T02:44:21;45.13;;;24.30;;
42912;SDS011;50720;54.324;18.558;2023-04-24T02:46:50;54.28;;;27.92;;
42912;SDS011;50720;54.324;18.558;2023-04-24T02:49:20;43.30;;;26.77;;
42912;SDS011;50720;54.324;18.558;2023-04-24T02:51:49;52.80;;;27.63;;
42912;SDS011;50720;54.324;18.558;2023-04-24T02:54:19;52.63;;;25.23;;
42912;SDS011;50720;54.324;18.558;2023-04-24T02:56:50;51.40;;;26.63;;
42912;SDS011;50720;54.324;18.558;2023-04-24T02:59:20;52.95;;;25.05;;
42912;SDS011;50720;54.324;18.558;2023-04-24T03:01:49;54.33;;;25.98;;
42912;SDS011;50720;54.324;18.558;2023-04-24T03:04:19;54.57;;;25.63;;
42912;SDS011;50720;54.324;18.558;2023-04-24T03:06:49;53.00;;;26.77;;
42912;SDS011;50720;54.324;18.558;2023-04-24T03:09:20;53.42;;;26.33;;
42912;SDS011;50720;54.324;18.558;2023-04-24T03:11:51;47.17;;;25.83;;
42912;SDS011;50720;54.324;18.558;2023-04-24T03:14:20;52.85;;;26.08;;
42912;SDS011;50720;54.324;18.558;2023-04-24T03:16:50;53.97;;;27.15;;
42912;SDS011;50720;54.324;18.558;2023-04-24T03:19:20;47.15;;;25.88;;
42912;SDS011;50720;54.324;18.558;2023-04-24T03:21:49;56.77;;;25.83;;
42912;SDS011;50720;54.324;18.558;2023-04-24T03:24:19;48.77;;;24.23;;
42912;SDS011;50720;54.324;18.558;2023-04-24T03:26:50;52.78;;;24.92;;
42912;SDS011;50720;54.324;18.558;2023-04-24T03:29:20;49.85;;;24.98;;
42912;SDS011;50720;54.324;18.558;2023-04-24T03:31:50;46.83;;;24.20;;
42912;SDS011;50720;54.324;18.558;2023-04-24T03:34:20;42.67;;;22.23;;
42912;SDS011;50720;54.324;18.558;2023-04-24T03:36:49;43.70;;;22.73;;
42912;SDS011;50720;54.324;18.558;2023-04-24T03:39:20;48.97;;;23.15;;
42912;SDS011;50720;54.324;18.558;2023-04-24T03:41:51;48.85;;;23.40;;
42912;SDS011;50720;54.324;18.558;2023-04-24T03:44:21;41.63;;;22.00;;
42912;SDS011;50720;54.324;18.558;2023-04-24T03:46:50;42.72;;;22.67;;
42912;SDS011;50720;54.324;18.558;2023-04-24T03:49:20;38.47;;;20.85;;
42912;SDS011;50720;54.324;18.558;2023-04-24T03:51:49;35.17;;;20.45;;
42912;SDS011;50720;54.324;18.558;2023-04-24T03:54:20;31.88;;;18.52;;
42912;SDS011;50720;54.324;18.558;2023-04-24T03:56:50;34.50;;;20.40;;
42912;SDS011;50720;54.324;18.558;2023-04-24T03:59:20;37.45;;;20.50;;
42912;SDS011;50720;54.324;18.558;2023-04-24T04:01:50;35.42;;;20.08;;
42912;SDS011;50720;54.324;18.558;2023-04-24T04:04:19;32.67;;;20.63;;
42912;SDS011;50720;54.324;18.558;2023-04-24T04:06:49;33.95;;;21.20;;
42912;SDS011;50720;54.324;18.558;2023-04-24T04:09:20;30.17;;;19.20;;
42912;SDS011;50720;54.324;18.558;2023-04-24T04:11:51;30.52;;;19.23;;
42912;SDS011;50720;54.324;18.558;2023-04-24T04:14:21;31.15;;;19.77;;
42912;SDS011;50720;54.324;18.558;2023-04-24T04:16:51;31.95;;;21.25;;
42912;SDS011;50720;54.324;18.558;2023-04-24T04:19:21;30.27;;;20.17;;
42912;SDS011;50720;54.324;18.558;2023-04-24T04:21:50;34.72;;;20.98;;
42912;SDS011;50720;54.324;18.558;2023-04-24T04:24:23;32.38;;;21.15;;
42912;SDS011;50720;54.324;18.558;2023-04-24T04:26:55;34.13;;;22.27;;
42912;SDS011;50720;54.324;18.558;2023-04-24T04:29:25;34.67;;;19.92;;
42912;SDS011;50720;54.324;18.558;2023-04-24T04:31:55;44.78;;;22.70;;
42912;SDS011;50720;54.324;18.558;2023-04-24T04:34:25;36.30;;;22.60;;
42912;SDS011;50720;54.324;18.558;2023-04-24T04:36:54;37.30;;;22.90;;
42912;SDS011;50720;54.324;18.558;2023-04-24T04:39:26;36.95;;;21.08;;
42912;SDS011;50720;54.324;18.558;2023-04-24T04:41:59;34.75;;;20.73;;
42912;SDS011;50720;54.324;18.558;2023-04-24T04:44:28;35.80;;;22.48;;
42912;SDS011;50720;54.324;18.558;2023-04-24T04:46:58;30.80;;;21.50;;
42912;SDS011;50720;54.324;18.558;2023-04-24T04:49:28;35.78;;;22.13;;
42912;SDS011;50720;54.324;18.558;2023-04-24T04:51:57;32.53;;;19.45;;
42912;SDS011;50720;54.324;18.558;2023-04-24T04:54:27;35.50;;;20.92;;
42912;SDS011;50720;54.324;18.558;2023-04-24T04:56:56;31.58;;;19.77;;
42912;SDS011;50720;54.324;18.558;2023-04-24T04:59:30;33.22;;;21.05;;
42912;SDS011;50720;54.324;18.558;2023-04-24T05:02:00;35.20;;;20.85;;
42912;SDS011;50720;54.324;18.558;2023-04-24T05:04:29;32.83;;;21.17;;
42912;SDS011;50720;54.324;18.558;2023-04-24T05:06:59;27.93;;;18.93;;
42912;SDS011;50720;54.324;18.558;2023-04-24T05:09:30;31.38;;;19.50;;
42912;SDS011;50720;54.324;18.558;2023-04-24T05:12:01;30.02;;;19.02;;
42912;SDS011;50720;54.324;18.558;2023-04-24T05:14:32;26.10;;;17.95;;
42912;SDS011;50720;54.324;18.558;2023-04-24T05:17:01;26.27;;;17.42;;
42912;SDS011;50720;54.324;18.558;2023-04-24T05:19:31;29.95;;;18.65;;
42912;SDS011;50720;54.324;18.558;2023-04-24T05:22:03;31.70;;;18.05;;
42912;SDS011;50720;54.324;18.558;2023-04-24T05:24:34;26.17;;;15.82;;
42912;SDS011;50720;54.324;18.558;2023-04-24T05:27:05;23.65;;;15.45;;
42912;SDS011;50720;54.324;18.558;2023-04-24T05:29:35;25.75;;;17.00;;
42912;SDS011;50720;54.324;18.558;2023-04-24T05:32:04;28.35;;;16.52;;
42912;SDS011;50720;54.324;18.558;2023-04-24T05:34:35;24.05;;;16.60;;
42912;SDS011;50720;54.324;18.558;2023-04-24T05:37:04;23.65;;;15.98;;
42912;SDS011;50720;54.324;18.558;2023-04-24T05:39:37;23.35;;;15.50;;
42912;SDS011;50720;54.324;18.558;2023-04-24T05:42:10;22.63;;;15.48;;
42912;SDS011;50720;54.324;18.558;2023-04-24T05:44:40;24.38;;;14.95;;
42912;SDS011;50720;54.324;18.558;2023-04-24T05:47:09;24.38;;;14.90;;
42912;SDS011;50720;54.324;18.558;2023-04-24T05:49:40;21.15;;;14.95;;
42912;SDS011;50720;54.324;18.558;2023-04-24T05:52:10;28.77;;;14.82;;
42912;SDS011;50720;54.324;18.558;2023-04-24T05:54:39;26.85;;;15.77;;
42912;SDS011;50720;54.324;18.558;2023-04-24T05:57:10;24.08;;;14.60;;
42912;SDS011;50720;54.324;18.558;2023-04-24T05:59:41;21.85;;;14.93;;
42912;SDS011;50720;54.324;18.558;2023-04-24T06:02:10;31.15;;;16.67;;
42912;SDS011;50720;54.324;18.558;2023-04-24T06:04:40;26.20;;;16.67;;
42912;SDS011;50720;54.324;18.558;2023-04-24T06:07:11;19.70;;;15.00;;
42912;SDS011;50720;54.324;18.558;2023-04-24T06:09:41;22.77;;;14.65;;
42912;SDS011;50720;54.324;18.558;2023-04-24T06:12:12;23.33;;;14.60;;
42912;SDS011;50720;54.324;18.558;2023-04-24T06:14:42;24.33;;;15.05;;
42912;SDS011;50720;54.324;18.558;2023-04-24T06:17:11;29.67;;;15.88;;
42912;SDS011;50720;54.324;18.558;2023-04-24T06:19:41;22.02;;;13.70;;
42912;SDS011;50720;54.324;18.558;2023-04-24T06:22:11;20.95;;;14.13;;
42912;SDS011;50720;54.324;18.558;2023-04-24T06:24:40;23.90;;;14.30;;
42912;SDS011;50720;54.324;18.558;2023-04-24T06:27:10;20.92;;;13.05;;
42912;SDS011;50720;54.324;18.558;2023-04-24T06:29:42;24.17;;;15.32;;
42912;SDS011;50720;54.324;18.558;2023-04-24T06:32:11;25.38;;;14.73;;
42912;SDS011;50720;54.324;18.558;2023-04-24T06:34:41;31.52;;;14.73;;
42912;SDS011;50720;54.324;18.558;2023-04-24T06:37:11;32.17;;;15.75;;
42912;SDS011;50720;54.324;18.558;2023-04-24T06:39:40;23.48;;;13.40;;
42912;SDS011;50720;54.324;18.558;2023-04-24T06:42:11;23.17;;;15.75;;
42912;SDS011;50720;54.324;18.558;2023-04-24T06:44:41;27.02;;;15.55;;
42912;SDS011;50720;54.324;18.558;2023-04-24T06:47:11;28.27;;;15.40;;
42912;SDS011;50720;54.324;18.558;2023-04-24T06:49:41;26.33;;;16.30;;
42912;SDS011;50720;54.324;18.558;2023-04-24T06:52:12;33.20;;;16.48;;
42912;SDS011;50720;54.324;18.558;2023-04-24T06:54:41;23.77;;;14.88;;
42912;SDS011;50720;54.324;18.558;2023-04-24T06:57:12;28.05;;;16.15;;
42912;SDS011;50720;54.324;18.558;2023-04-24T06:59:43;23.17;;;13.52;;
42912;SDS011;50720;54.324;18.558;2023-04-24T07:02:13;23.15;;;13.52;;
42912;SDS011;50720;54.324;18.558;2023-04-24T07:04:43;22.80;;;14.25;;
42912;SDS011;50720;54.324;18.558;2023-04-24T07:07:14;28.45;;;13.82;;
42912;SDS011;50720;54.324;18.558;2023-04-24T07:09:45;22.55;;;13.55;;
42912;SDS011;50720;54.324;18.558;2023-04-24T07:12:15;22.77;;;14.32;;
42912;SDS011;50720;54.324;18.558;2023-04-24T07:14:48;25.40;;;15.05;;
42912;SDS011;50720;54.324;18.558;2023-04-24T07:17:19;27.88;;;15.40;;
42912;SDS011;50720;54.324;18.558;2023-04-24T07:19:49;33.90;;;14.73;;
42912;SDS011;50720;54.324;18.558;2023-04-24T07:22:18;25.20;;;14.68;;
42912;SDS011;50720;54.324;18.558;2023-04-24T07:24:48;25.73;;;15.90;;
42912;SDS011;50720;54.324;18.558;2023-04-24T07:27:19;30.25;;;17.70;;
42912;SDS011;50720;54.324;18.558;2023-04-24T07:29:49;25.88;;;15.07;;
42912;SDS011;50720;54.324;18.558;2023-04-24T07:32:18;26.05;;;14.73;;
42912;SDS011;50720;54.324;18.558;2023-04-24T07:34:48;29.27;;;16.80;;
42912;SDS011;50720;54.324;18.558;2023-04-24T07:37:17;21.95;;;15.10;;
42912;SDS011;50720;54.324;18.558;2023-04-24T07:39:47;25.23;;;14.40;;
42912;SDS011;50720;54.324;18.558;2023-04-24T07:42:17;29.15;;;15.18;;
42912;SDS011;50720;54.324;18.558;2023-04-24T07:44:48;24.42;;;14.43;;
42912;SDS011;50720;54.324;18.558;2023-04-24T07:47:18;22.38;;;14.63;;
42912;SDS011;50720;54.324;18.558;2023-04-24T07:49:48;24.38;;;14.90;;
42912;SDS011;50720;54.324;18.558;2023-04-24T07:52:18;21.55;;;13.13;;
42912;SDS011;50720;54.324;18.558;2023-04-24T07:54:48;24.50;;;13.95;;
42912;SDS011;50720;54.324;18.558;2023-04-24T07:57:21;22.38;;;13.57;;
42912;SDS011;50720;54.324;18.558;2023-04-24T07:59:51;18.27;;;12.82;;
42912;SDS011;50720;54.324;18.558;2023-04-24T08:02:20;20.15;;;12.68;;
42912;SDS011;50720;54.324;18.558;2023-04-24T08:04:54;19.83;;;13.95;;
42912;SDS011;50720;54.324;18.558;2023-04-24T08:07:26;17.00;;;12.60;;
42912;SDS011;50720;54.324;18.558;2023-04-24T08:09:56;19.42;;;12.75;;
42912;SDS011;50720;54.324;18.558;2023-04-24T08:12:28;17.02;;;12.30;;
42912;SDS011;50720;54.324;18.558;2023-04-24T08:14:58;25.92;;;12.80;;
42912;SDS011;50720;54.324;18.558;2023-04-24T08:17:28;19.33;;;13.65;;
42912;SDS011;50720;54.324;18.558;2023-04-24T08:20:01;20.77;;;14.45;;
42912;SDS011;50720;54.324;18.558;2023-04-24T08:25:01;19.33;;;13.85;;
42912;SDS011;50720;54.324;18.558;2023-04-24T08:27:32;20.45;;;14.70;;
42912;SDS011;50720;54.324;18.558;2023-04-24T08:30:04;20.23;;;15.85;;
42912;SDS011;50720;54.324;18.558;2023-04-24T08:32:35;24.15;;;16.88;;
42912;SDS011;50720;54.324;18.558;2023-04-24T08:35:05;22.77;;;15.98;;
42912;SDS011;50720;54.324;18.558;2023-04-24T08:37:36;23.55;;;14.45;;
42912;SDS011;50720;54.324;18.558;2023-04-24T08:40:10;21.20;;;15.35;;
42912;SDS011;50720;54.324;18.558;2023-04-24T08:42:44;22.90;;;15.88;;
42912;SDS011;50720;54.324;18.558;2023-04-24T08:45:13;21.98;;;16.60;;
42912;SDS011;50720;54.324;18.558;2023-04-24T08:47:43;25.60;;;15.20;;
42912;SDS011;50720;54.324;18.558;2023-04-24T08:50:13;18.73;;;13.63;;
42912;SDS011;50720;54.324;18.558;2023-04-24T08:52:44;20.40;;;14.25;;
42912;SDS011;50720;54.324;18.558;2023-04-24T08:55:15;19.97;;;15.10;;
42912;SDS011;50720;54.324;18.558;2023-04-24T08:57:46;22.48;;;15.32;;
42912;SDS011;50720;54.324;18.558;2023-04-24T09:00:20;19.02;;;13.40;;
42912;SDS011;50720;54.324;18.558;2023-04-24T09:05:22;20.55;;;15.27;;
42912;SDS011;50720;54.324;18.558;2023-04-24T09:07:55;19.50;;;15.18;;
42912;SDS011;50720;54.324;18.558;2023-04-24T09:10:26;17.75;;;14.75;;
42912;SDS011;50720;54.324;18.558;2023-04-24T09:12:59;20.95;;;15.52;;
42912;SDS011;50720;54.324;18.558;2023-04-24T09:15:30;20.42;;;15.00;;
42912;SDS011;50720;54.324;18.558;2023-04-24T09:20:30;17.33;;;14.35;;
42912;SDS011;50720;54.324;18.558;2023-04-24T09:23:00;18.33;;;14.95;;
42912;SDS011;50720;54.324;18.558;2023-04-24T09:25:31;20.25;;;15.90;;
42912;SDS011;50720;54.324;18.558;2023-04-24T09:28:03;20.77;;;15.57;;
42912;SDS011;50720;54.324;18.558;2023-04-24T09:30:33;21.90;;;16.40;;
42912;SDS011;50720;54.324;18.558;2023-04-24T09:33:09;24.35;;;15.68;;
42912;SDS011;50720;54.324;18.558;2023-04-24T09:35:40;18.67;;;15.52;;
42912;SDS011;50720;54.324;18.558;2023-04-24T09:38:11;22.77;;;16.23;;
42912;SDS011;50720;54.324;18.558;2023-04-24T09:40:40;19.98;;;16.05;;
42912;SDS011;50720;54.324;18.558;2023-04-24T09:43:12;20.83;;;15.77;;
42912;SDS011;50720;54.324;18.558;2023-04-24T09:45:42;26.65;;;17.80;;
42912;SDS011;50720;54.324;18.558;2023-04-24T09:48:11;24.02;;;17.50;;
42912;SDS011;50720;54.324;18.558;2023-04-24T09:50:43;24.60;;;18.30;;
42912;SDS011;50720;54.324;18.558;2023-04-24T09:53:14;27.67;;;18.17;;
42912;SDS011;50720;54.324;18.558;2023-04-24T09:55:45;25.65;;;18.75;;
42912;SDS011;50720;54.324;18.558;2023-04-24T09:58:17;25.55;;;17.85;;
42912;SDS011;50720;54.324;18.558;2023-04-24T10:00:53;26.20;;;18.55;;
42912;SDS011;50720;54.324;18.558;2023-04-24T10:05:54;24.40;;;18.58;;
42912;SDS011;50720;54.324;18.558;2023-04-24T10:08:32;25.80;;;19.23;;
42912;SDS011;50720;54.324;18.558;2023-04-24T10:11:03;35.72;;;20.77;;
42912;SDS011;50720;54.324;18.558;2023-04-24T10:13:34;28.33;;;19.50;;
42912;SDS011;50720;54.324;18.558;2023-04-24T10:16:05;28.42;;;20.77;;
42912;SDS011;50720;54.324;18.558;2023-04-24T10:18:34;24.70;;;17.60;;
42912;SDS011;50720;54.324;18.558;2023-04-24T10:21:04;29.15;;;20.33;;
42912;SDS011;50720;54.324;18.558;2023-04-24T10:23:34;27.75;;;18.98;;
42912;SDS011;50720;54.324;18.558;2023-04-24T10:26:05;28.60;;;18.95;;
42912;SDS011;50720;54.324;18.558;2023-04-24T10:28:37;25.77;;;18.17;;
42912;SDS011;50720;54.324;18.558;2023-04-24T10:31:07;21.25;;;17.20;;
42912;SDS011;50720;54.324;18.558;2023-04-24T10:33:38;23.60;;;16.67;;
42912;SDS011;50720;54.324;18.558;2023-04-24T10:36:10;20.90;;;16.13;;
42912;SDS011;50720;54.324;18.558;2023-04-24T10:38:42;18.10;;;15.05;;
42912;SDS011;50720;54.324;18.558;2023-04-24T10:41:16;20.52;;;15.40;;
42912;SDS011;50720;54.324;18.558;2023-04-24T10:44:05;19.35;;;15.60;;
42912;SDS011;50720;54.324;18.558;2023-04-24T10:46:35;19.27;;;15.07;;
42912;SDS011;50720;54.324;18.558;2023-04-24T10:49:05;19.25;;;16.58;;
42912;SDS011;50720;54.324;18.558;2023-04-24T10:51:48;23.95;;;14.85;;
42912;SDS011;50720;54.324;18.558;2023-04-24T10:54:23;15.75;;;13.15;;
42912;SDS011;50720;54.324;18.558;2023-04-24T11:02:49;19.88;;;14.02;;
42912;SDS011;50720;54.324;18.558;2023-04-24T11:05:22;18.48;;;14.43;;
42912;SDS011;50720;54.324;18.558;2023-04-24T11:08:14;21.45;;;14.65;;
42912;SDS011;50720;54.324;18.558;2023-04-24T11:10:44;15.75;;;13.73;;
42912;SDS011;50720;54.324;18.558;2023-04-24T11:13:16;18.95;;;14.02;;
42912;SDS011;50720;54.324;18.558;2023-04-24T11:15:45;18.13;;;14.73;;
42912;SDS011;50720;54.324;18.558;2023-04-24T11:18:42;18.38;;;14.43;;
42912;SDS011;50720;54.324;18.558;2023-04-24T11:21:17;22.30;;;14.45;;
42912;SDS011;50720;54.324;18.558;2023-04-24T11:23:49;19.98;;;14.90;;
42912;SDS011;50720;54.324;18.558;2023-04-24T11:26:20;21.98;;;14.52;;
42912;SDS011;50720;54.324;18.558;2023-04-24T11:28:53;17.65;;;13.32;;
42912;SDS011;50720;54.324;18.558;2023-04-24T11:31:34;17.77;;;13.32;;
42912;SDS011;50720;54.324;18.558;2023-04-24T11:34:09;18.35;;;13.80;;
42912;SDS011;50720;54.324;18.558;2023-04-24T11:36:40;15.65;;;12.68;;
42912;SDS011;50720;54.324;18.558;2023-04-24T11:39:14;16.45;;;11.90;;
42912;SDS011;50720;54.324;18.558;2023-04-24T11:41:43;16.92;;;11.85;;
42912;SDS011;50720;54.324;18.558;2023-04-24T11:44:13;13.10;;;8.23;;
42912;SDS011;50720;54.324;18.558;2023-04-24T11:46:43;10.30;;;8.23;;
42912;SDS011;50720;54.324;18.558;2023-04-24T11:49:13;7.57;;;5.93;;
42912;SDS011;50720;54.324;18.558;2023-04-24T11:51:43;7.68;;;5.60;;
42912;SDS011;50720;54.324;18.558;2023-04-24T11:54:22;13.93;;;7.05;;
42912;SDS011;50720;54.324;18.558;2023-04-24T11:56:51;8.23;;;5.30;;
42912;SDS011;50720;54.324;18.558;2023-04-24T11:59:21;9.93;;;5.03;;
42912;SDS011;50720;54.324;18.558;2023-04-24T12:01:51;9.90;;;5.80;;
42912;SDS011;50720;54.324;18.558;2023-04-24T12:04:21;7.13;;;4.97;;
42912;SDS011;50720;54.324;18.558;2023-04-24T12:06:59;5.85;;;4.65;;
42912;SDS011;50720;54.324;18.558;2023-04-24T12:09:41;7.97;;;5.10;;
42912;SDS011;50720;54.324;18.558;2023-04-24T12:12:14;7.28;;;4.93;;
42912;SDS011;50720;54.324;18.558;2023-04-24T12:14:47;6.78;;;4.50;;
42912;SDS011;50720;54.324;18.558;2023-04-24T12:17:17;8.93;;;4.47;;
42912;SDS011;50720;54.324;18.558;2023-04-24T12:19:57;7.47;;;4.00;;
42912;SDS011;50720;54.324;18.558;2023-04-24T12:22:28;6.95;;;4.53;;
42912;SDS011;50720;54.324;18.558;2023-04-24T12:25:14;11.18;;;4.90;;
42912;SDS011;50720;54.324;18.558;2023-04-24T12:27:44;6.00;;;4.43;;
42912;SDS011;50720;54.324;18.558;2023-04-24T12:30:15;6.85;;;4.18;;
42912;SDS011;50720;54.324;18.558;2023-04-24T12:32:46;5.93;;;3.90;;
42912;SDS011;50720;54.324;18.558;2023-04-24T12:35:19;6.30;;;3.42;;
42912;SDS011;50720;54.324;18.558;2023-04-24T12:37:49;9.77;;;4.57;;
42912;SDS011;50720;54.324;18.558;2023-04-24T12:40:21;7.32;;;3.10;;
42912;SDS011;50720;54.324;18.558;2023-04-24T12:42:53;8.50;;;3.40;;
42912;SDS011;50720;54.324;18.558;2023-04-24T12:45:24;4.38;;;3.42;;
42912;SDS011;50720;54.324;18.558;2023-04-24T12:47:55;6.60;;;3.65;;
42912;SDS011;50720;54.324;18.558;2023-04-24T12:50:24;4.75;;;2.90;;
42912;SDS011;50720;54.324;18.558;2023-04-24T12:52:54;3.55;;;3.25;;
42912;SDS011;50720;54.324;18.558;2023-04-24T12:55:25;7.67;;;3.50;;
42912;SDS011;50720;54.324;18.558;2023-04-24T12:57:54;6.22;;;3.60;;
42912;SDS011;50720;54.324;18.558;2023-04-24T13:00:24;10.23;;;3.88;;
42912;SDS011;50720;54.324;18.558;2023-04-24T13:02:54;6.20;;;3.45;;
42912;SDS011;50720;54.324;18.558;2023-04-24T13:05:24;4.80;;;3.45;;
42912;SDS011;50720;54.324;18.558;2023-04-24T13:07:54;4.90;;;3.40;;
42912;SDS011;50720;54.324;18.558;2023-04-24T13:10:25;6.28;;;3.83;;
42912;SDS011;50720;54.324;18.558;2023-04-24T13:12:55;12.43;;;3.88;;
42912;SDS011;50720;54.324;18.558;2023-04-24T13:15:25;10.70;;;4.80;;
42912;SDS011;50720;54.324;18.558;2023-04-24T13:17:54;5.63;;;3.58;;
42912;SDS011;50720;54.324;18.558;2023-04-24T13:20:24;7.35;;;3.35;;
42912;SDS011;50720;54.324;18.558;2023-04-24T13:22:54;3.72;;;3.22;;
42912;SDS011;50720;54.324;18.558;2023-04-24T13:27:56;5.25;;;3.50;;
42912;SDS011;50720;54.324;18.558;2023-04-24T13:30:26;6.03;;;3.60;;
42912;SDS011;50720;54.324;18.558;2023-04-24T13:32:55;5.35;;;3.05;;
42912;SDS011;50720;54.324;18.558;2023-04-24T13:35:26;3.78;;;3.45;;
42912;SDS011;50720;54.324;18.558;2023-04-24T13:37:55;5.97;;;3.25;;
42912;SDS011;50720;54.324;18.558;2023-04-24T13:40:27;6.43;;;3.20;;
42912;SDS011;50720;54.324;18.558;2023-04-24T13:42:56;4.32;;;3.20;;
42912;SDS011;50720;54.324;18.558;2023-04-24T13:45:26;5.88;;;3.58;;
42912;SDS011;50720;54.324;18.558;2023-04-24T13:47:56;6.15;;;3.85;;
42912;SDS011;50720;54.324;18.558;2023-04-24T13:50:27;4.32;;;3.20;;
42912;SDS011;50720;54.324;18.558;2023-04-24T13:52:57;5.32;;;2.90;;
42912;SDS011;50720;54.324;18.558;2023-04-24T13:55:30;5.93;;;3.22;;
42912;SDS011;50720;54.324;18.558;2023-04-24T13:57:59;7.35;;;3.63;;
42912;SDS011;50720;54.324;18.558;2023-04-24T14:00:29;10.18;;;4.00;;
42912;SDS011;50720;54.324;18.558;2023-04-24T14:02:59;5.63;;;3.65;;
42912;SDS011;50720;54.324;18.558;2023-04-24T14:05:29;4.22;;;3.75;;
42912;SDS011;50720;54.324;18.558;2023-04-24T14:07:58;6.40;;;3.15;;
42912;SDS011;50720;54.324;18.558;2023-04-24T14:10:29;7.63;;;3.85;;
42912;SDS011;50720;54.324;18.558;2023-04-24T14:12:59;9.75;;;3.60;;
42912;SDS011;50720;54.324;18.558;2023-04-24T14:15:28;10.65;;;3.20;;
42912;SDS011;50720;54.324;18.558;2023-04-24T14:17:58;6.17;;;3.37;;
42912;SDS011;50720;54.324;18.558;2023-04-24T14:20:30;6.90;;;3.22;;
42912;SDS011;50720;54.324;18.558;2023-04-24T14:23:00;6.00;;;3.33;;
42912;SDS011;50720;54.324;18.558;2023-04-24T14:25:31;9.30;;;3.78;;
42912;SDS011;50720;54.324;18.558;2023-04-24T14:28:01;3.83;;;2.97;;
42912;SDS011;50720;54.324;18.558;2023-04-24T14:30:31;4.35;;;3.13;;
42912;SDS011;50720;54.324;18.558;2023-04-24T14:33:00;5.93;;;4.00;;
42912;SDS011;50720;54.324;18.558;2023-04-24T14:35:30;4.50;;;3.58;;
42912;SDS011;50720;54.324;18.558;2023-04-24T14:38:01;6.03;;;3.72;;
42912;SDS011;50720;54.324;18.558;2023-04-24T14:43:22;4.45;;;3.97;;
42912;SDS011;50720;54.324;18.558;2023-04-24T14:45:52;6.05;;;3.40;;
42912;SDS011;50720;54.324;18.558;2023-04-24T14:48:21;5.43;;;3.30;;
42912;SDS011;50720;54.324;18.558;2023-04-24T14:50:51;7.15;;;4.05;;
42912;SDS011;50720;54.324;18.558;2023-04-24T14:53:21;8.23;;;3.83;;
42912;SDS011;50720;54.324;18.558;2023-04-24T14:55:52;13.07;;;4.78;;
42912;SDS011;50720;54.324;18.558;2023-04-24T14:58:22;8.43;;;4.60;;
42912;SDS011;50720;54.324;18.558;2023-04-24T15:00:52;6.55;;;5.75;;
42912;SDS011;50720;54.324;18.558;2023-04-24T15:03:22;9.93;;;4.97;;
42912;SDS011;50720;54.324;18.558;2023-04-24T15:05:54;11.35;;;5.82;;